createdAt,value
2019-01-18T00:02:12.587Z,82.80
2019-01-18T00:04:38.651Z,82.90
2019-01-18T00:07:04.708Z,82.80
2019-01-18T00:09:31.022Z,82.80
2019-01-18T00:11:57.097Z,82.60
2019-01-18T00:14:23.148Z,82.60
2019-01-18T00:16:49.190Z,83.10
2019-01-18T00:19:15.521Z,82.20
2019-01-18T00:21:41.867Z,82.00
2019-01-18T00:24:07.931Z,81.90
2019-01-18T00:26:33.976Z,81.80
2019-01-18T00:29:00.034Z,81.80
2019-01-18T00:31:26.468Z,81.90
2019-01-18T00:33:52.806Z,82.20
2019-01-18T00:36:18.873Z,82.50
2019-01-18T00:38:44.908Z,82.40
2019-01-18T00:41:10.952Z,82.40
2019-01-18T00:43:37.010Z,82.60
2019-01-18T00:46:03.152Z,83.20
2019-01-18T00:48:29.207Z,82.80
2019-01-18T00:50:55.414Z,82.80
2019-01-18T00:53:21.533Z,82.90
2019-01-18T00:55:47.582Z,82.80
2019-01-18T00:58:13.627Z,82.90
2019-01-18T01:00:39.681Z,82.90
2019-01-18T01:03:05.736Z,83.00
2019-01-18T01:05:31.808Z,83.20
2019-01-18T01:07:57.839Z,83.20
2019-01-18T01:10:25.787Z,83.40
2019-01-18T01:12:51.849Z,83.40
2019-01-18T01:15:19.310Z,84.00
2019-01-18T01:17:45.844Z,83.50
2019-01-18T01:20:14.519Z,83.60
2019-01-18T01:22:40.755Z,83.60
2019-01-18T01:25:08.602Z,83.60
2019-01-18T01:27:34.663Z,83.70
2019-01-18T01:30:00.711Z,83.60
2019-01-18T01:32:26.759Z,83.60
2019-01-18T01:34:52.821Z,83.50
2019-01-18T01:37:18.859Z,83.50
2019-01-18T01:39:44.899Z,83.40
2019-01-18T01:42:10.963Z,83.40
2019-01-18T01:44:37.005Z,83.50
2019-01-18T01:47:03.059Z,83.40
2019-01-18T01:49:29.098Z,83.20
2019-01-18T01:51:55.139Z,83.10
2019-01-18T01:54:21.183Z,82.90
2019-01-18T01:56:53.275Z,82.90
2019-01-18T01:59:19.315Z,83.20
2019-01-18T02:01:45.371Z,82.90
2019-01-18T02:04:11.411Z,82.90
2019-01-18T02:06:37.491Z,83.00
2019-01-18T02:09:05.350Z,82.70
2019-01-18T02:11:31.402Z,82.50
2019-01-18T02:13:57.448Z,82.40
2019-01-18T02:16:23.519Z,82.40
2019-01-18T02:18:49.772Z,82.40
2019-01-18T02:21:15.809Z,82.20
2019-01-18T02:23:41.859Z,82.20
2019-01-18T02:26:08.168Z,82.40
2019-01-18T02:28:34.503Z,82.50
2019-01-18T02:31:00.561Z,82.70
2019-01-18T02:33:26.603Z,82.70
2019-01-18T02:35:52.669Z,82.70
2019-01-18T02:38:18.707Z,82.60
2019-01-18T02:40:44.770Z,82.60
2019-01-18T02:43:10.825Z,82.90
2019-01-18T02:45:36.864Z,83.10
2019-01-18T02:48:03.298Z,83.20
2019-01-18T02:50:29.364Z,84.10
2019-01-18T02:52:55.420Z,83.40
2019-01-18T02:55:28.502Z,83.40
2019-01-18T02:57:49.428Z,83.40
2019-01-18T03:00:18.081Z,83.20
2019-01-18T03:02:44.462Z,82.90
2019-01-18T03:05:12.520Z,82.30
2019-01-18T03:07:38.570Z,82.00
2019-01-18T03:10:14.187Z,81.50
2019-01-18T03:12:40.239Z,81.30
2019-01-18T03:15:07.370Z,81.00
2019-01-18T03:17:33.701Z,81.00
2019-01-18T03:19:59.735Z,80.90
2019-01-18T03:22:25.787Z,80.70
2019-01-18T03:24:52.178Z,80.50
2019-01-18T03:27:18.243Z,80.40
2019-01-18T03:29:44.284Z,80.50
2019-01-18T03:32:10.329Z,80.40
2019-01-18T03:34:36.386Z,80.40
2019-01-18T03:37:02.423Z,80.50
2019-01-18T03:39:28.472Z,80.60
2019-01-18T03:41:54.533Z,80.60
2019-01-18T03:44:20.573Z,80.50
2019-01-18T03:46:46.603Z,80.40
2019-01-18T03:49:12.669Z,80.40
2019-01-18T03:51:39.051Z,80.30
2019-01-18T03:54:05.094Z,80.40
2019-01-18T03:56:31.142Z,80.50
2019-01-18T03:58:57.195Z,80.50
2019-01-18T04:01:23.241Z,80.40
2019-01-18T04:03:49.292Z,80.20
2019-01-18T04:06:15.598Z,80.10
2019-01-18T04:08:41.637Z,80.00
2019-01-18T04:11:07.717Z,79.90
2019-01-18T04:13:34.074Z,79.50
2019-01-18T04:16:00.111Z,79.30
2019-01-18T04:18:26.184Z,79.40
2019-01-18T04:20:52.227Z,79.30
2019-01-18T04:23:18.280Z,79.30
2019-01-18T04:25:44.548Z,79.40
2019-01-18T04:28:10.599Z,79.40
2019-01-18T04:30:36.949Z,79.40
2019-01-18T04:33:02.987Z,79.40
2019-01-18T04:35:29.308Z,78.90
2019-01-18T04:37:55.636Z,79.70
2019-01-18T04:40:23.913Z,79.90
2019-01-18T04:42:49.955Z,80.50
2019-01-18T04:45:16.113Z,80.10
2019-01-18T04:47:42.375Z,80.10
2019-01-18T04:50:14.273Z,80.20
2019-01-18T04:52:40.576Z,80.20
2019-01-18T04:55:07.831Z,80.10
2019-01-18T04:57:33.889Z,80.20
2019-01-18T04:59:59.919Z,80.10
2019-01-18T05:02:25.979Z,80.00
2019-01-18T05:04:52.049Z,80.10
2019-01-18T05:07:18.184Z,80.10
2019-01-18T05:09:44.239Z,80.30
2019-01-18T05:12:10.274Z,80.20
2019-01-18T05:14:36.324Z,80.20
2019-01-18T05:17:02.651Z,80.20
2019-01-18T05:19:28.728Z,80.30
2019-01-18T05:21:54.775Z,80.40
2019-01-18T05:24:20.820Z,80.30
2019-01-18T05:26:46.877Z,80.20
2019-01-18T05:29:13.175Z,80.20
2019-01-18T05:31:39.220Z,80.00
2019-01-18T05:34:05.284Z,80.00
2019-01-18T05:36:31.324Z,79.70
2019-01-18T05:38:57.362Z,79.50
2019-01-18T05:41:23.427Z,79.30
2019-01-18T05:43:49.469Z,79.30
2019-01-18T05:46:15.525Z,79.30
2019-01-18T05:48:41.573Z,79.20
2019-01-18T05:51:07.901Z,79.00
2019-01-18T05:53:34.256Z,79.00
2019-01-18T05:56:00.563Z,79.10
2019-01-18T05:58:26.595Z,79.10
2019-01-18T06:00:55.353Z,79.30
2019-01-18T06:03:22.103Z,79.20
2019-01-18T06:05:48.171Z,79.20
2019-01-18T06:08:14.559Z,80.10
2019-01-18T06:10:40.633Z,79.20
2019-01-18T06:13:06.679Z,79.50
2019-01-18T06:15:32.719Z,79.60
2019-01-18T06:17:58.771Z,79.90
2019-01-18T06:20:24.820Z,80.10
2019-01-18T06:22:50.859Z,80.40
2019-01-18T06:25:16.915Z,80.30
2019-01-18T06:30:15.135Z,79.40
2019-01-18T06:32:41.231Z,79.70
2019-01-18T06:35:07.577Z,79.40
2019-01-18T06:37:33.615Z,79.00
2019-01-18T06:39:59.679Z,78.70
2019-01-18T06:42:25.719Z,78.60
2019-01-18T06:44:51.766Z,78.30
2019-01-18T06:47:17.820Z,78.30
2019-01-18T06:49:43.855Z,78.40
2019-01-18T06:52:11.778Z,79.10
2019-01-18T06:54:37.823Z,78.30
2019-01-18T06:57:03.878Z,78.20
2019-01-18T06:59:29.924Z,78.10
2019-01-18T07:01:55.984Z,77.90
2019-01-18T07:04:22.023Z,77.80
2019-01-18T07:06:48.072Z,77.90
2019-01-18T07:09:14.135Z,77.80
2019-01-18T07:11:40.187Z,77.80
2019-01-18T07:14:06.261Z,77.70
2019-01-18T07:16:32.395Z,77.60
2019-01-18T07:18:58.469Z,77.50
2019-01-18T07:21:24.547Z,77.30
2019-01-18T07:23:50.595Z,77.30
2019-01-18T07:26:16.675Z,77.30
2019-01-18T07:28:42.739Z,77.50
2019-01-18T07:31:14.965Z,77.50
2019-01-18T07:33:36.732Z,77.50
2019-01-18T07:36:03.185Z,77.50
2019-01-18T07:38:29.243Z,78.50
2019-01-18T07:40:55.287Z,77.80
2019-01-18T07:43:21.325Z,77.70
2019-01-18T07:45:47.438Z,77.60
2019-01-18T07:48:13.555Z,78.00
2019-01-18T07:50:39.595Z,78.10
2019-01-18T07:53:05.987Z,78.20
2019-01-18T07:55:32.490Z,78.30
2019-01-18T07:57:58.557Z,78.30
2019-01-18T08:00:26.974Z,78.40
2019-01-18T08:02:53.143Z,78.40
2019-01-18T08:05:20.613Z,78.50
2019-01-18T08:07:46.694Z,78.60
2019-01-18T08:10:15.830Z,78.50
2019-01-18T08:12:42.419Z,78.80
2019-01-18T08:15:11.577Z,78.90
2019-01-18T08:17:51.218Z,79.40
2019-01-18T08:20:19.683Z,78.20
2019-01-18T08:22:45.939Z,79.70
2019-01-18T08:25:13.689Z,79.90
2019-01-18T08:27:39.840Z,80.20
2019-01-18T08:30:14.604Z,80.40
2019-01-18T08:32:40.648Z,80.80
2019-01-18T08:35:09.198Z,81.00
2019-01-18T08:37:35.255Z,81.40
2019-01-18T08:40:01.295Z,81.60
2019-01-18T08:42:27.338Z,81.70
2019-01-18T08:44:53.419Z,81.80
2019-01-18T08:47:19.464Z,82.00
2019-01-18T08:49:45.516Z,82.10
2019-01-18T08:52:11.580Z,82.20
2019-01-18T08:54:38.373Z,82.30
2019-01-18T08:57:04.563Z,82.60
2019-01-18T08:59:30.625Z,82.70
2019-01-18T09:01:56.667Z,82.70
2019-01-18T09:04:22.732Z,82.60
2019-01-18T09:06:48.776Z,82.60
2019-01-18T09:09:15.148Z,82.50
2019-01-18T09:11:41.209Z,82.50
2019-01-18T09:14:07.247Z,82.50
2019-01-18T09:16:33.295Z,82.40
2019-01-18T09:18:59.361Z,82.60
2019-01-18T09:21:25.407Z,82.70
2019-01-18T09:23:51.471Z,83.00
2019-01-18T09:26:17.532Z,83.20
2019-01-18T09:28:43.575Z,83.60
2019-01-18T09:31:09.728Z,84.00
2019-01-18T09:33:35.790Z,84.50
2019-01-18T09:36:02.032Z,84.70
2019-01-18T09:38:28.076Z,85.20
2019-01-18T09:40:54.164Z,85.70
2019-01-18T09:43:20.207Z,85.90
2019-01-18T09:45:46.248Z,86.20
2019-01-18T09:48:12.304Z,86.40
2019-01-18T09:50:40.363Z,86.60
2019-01-18T09:53:07.312Z,86.80
2019-01-18T09:55:34.085Z,87.00
2019-01-18T09:58:00.428Z,87.10
2019-01-18T10:00:31.444Z,87.20
2019-01-18T10:02:57.604Z,87.30
2019-01-18T10:05:23.675Z,87.10
2019-01-18T10:07:49.743Z,87.20
2019-01-18T10:10:17.808Z,87.10
2019-01-18T10:12:44.261Z,87.10
2019-01-18T10:15:16.071Z,86.60
2019-01-18T10:17:42.132Z,86.70
2019-01-18T10:20:11.987Z,86.60
2019-01-18T10:22:38.368Z,86.60
2019-01-18T10:25:08.217Z,86.40
2019-01-18T10:27:34.280Z,86.30
2019-01-18T10:30:00.369Z,86.00
2019-01-18T10:32:26.407Z,86.20
2019-01-18T10:34:52.463Z,86.10
2019-01-18T10:37:18.534Z,86.10
2019-01-18T10:39:45.459Z,86.00
2019-01-18T10:42:11.514Z,86.00
2019-01-18T10:44:37.575Z,86.00
2019-01-18T10:47:03.617Z,85.70
2019-01-18T10:49:29.667Z,85.60
2019-01-18T10:51:55.723Z,85.40
2019-01-18T10:54:21.770Z,85.30
2019-01-18T10:56:47.817Z,85.20
2019-01-18T10:59:13.881Z,85.00
2019-01-18T11:01:40.275Z,85.00
2019-01-18T11:04:06.311Z,84.90
2019-01-18T11:06:32.473Z,85.10
2019-01-18T11:08:58.517Z,84.80
2019-01-18T11:11:24.574Z,84.80
2019-01-18T11:13:50.895Z,84.70
2019-01-18T11:16:16.941Z,84.70
2019-01-18T11:18:42.985Z,84.80
2019-01-18T11:21:09.051Z,84.60
2019-01-18T11:23:35.123Z,84.50
2019-01-18T11:26:01.169Z,84.70
2019-01-18T11:28:27.304Z,84.80
2019-01-18T11:30:53.376Z,84.70
2019-01-18T11:33:19.424Z,84.90
2019-01-18T11:35:45.488Z,84.80
2019-01-18T11:38:11.532Z,84.80
2019-01-18T11:40:37.567Z,84.80
2019-01-18T11:43:03.731Z,85.30
2019-01-18T11:45:29.884Z,84.50
2019-01-18T11:47:55.949Z,84.60
2019-01-18T11:50:27.149Z,84.10
2019-01-18T11:52:53.182Z,84.70
2019-01-18T11:55:19.240Z,84.40
2019-01-18T11:57:45.276Z,84.30
2019-01-18T12:00:14.852Z,84.50
2019-01-18T12:02:40.995Z,84.40
2019-01-18T12:05:07.044Z,84.40
2019-01-18T12:07:33.097Z,83.90
2019-01-18T12:09:59.151Z,83.70
2019-01-18T12:12:25.486Z,83.80
2019-01-18T12:14:51.674Z,83.70
2019-01-18T12:17:17.721Z,83.50
2019-01-18T12:19:43.773Z,83.50
2019-01-18T12:22:09.807Z,83.60
2019-01-18T12:24:36.211Z,83.80
2019-01-18T12:27:02.384Z,83.90
2019-01-18T12:29:28.421Z,83.50
2019-01-18T12:31:54.683Z,82.90
2019-01-18T12:34:21.018Z,82.90
2019-01-18T12:36:47.067Z,82.80
2019-01-18T12:39:13.139Z,82.40
2019-01-18T12:41:39.385Z,82.40
2019-01-18T12:44:05.444Z,82.50
2019-01-18T12:46:31.495Z,82.70
2019-01-18T12:48:57.583Z,82.70
2019-01-18T12:51:23.692Z,82.70
2019-01-18T12:53:49.757Z,82.70
2019-01-18T12:56:15.796Z,81.90
2019-01-18T12:58:41.850Z,82.20
2019-01-18T13:01:09.819Z,82.30
2019-01-18T13:03:35.871Z,82.50
2019-01-18T13:06:01.920Z,82.50
2019-01-18T13:08:27.977Z,82.50
2019-01-18T13:10:54.022Z,82.80
2019-01-18T13:13:20.064Z,82.80
2019-01-18T13:15:53.153Z,82.60
2019-01-18T13:18:19.200Z,82.60
2019-01-18T13:20:45.308Z,82.40
2019-01-18T13:23:11.368Z,81.60
2019-01-18T13:25:37.507Z,81.90
2019-01-18T13:28:03.714Z,82.00
2019-01-18T13:30:29.750Z,82.20
2019-01-18T13:32:55.791Z,82.40
2019-01-18T13:35:21.960Z,82.30
2019-01-18T13:37:48.001Z,82.30
2019-01-18T13:40:20.236Z,82.00
2019-01-18T13:42:46.318Z,82.30
2019-01-18T13:45:12.664Z,82.80
2019-01-18T13:47:39.208Z,83.10
2019-01-18T13:50:09.078Z,82.80
2019-01-18T13:52:35.513Z,82.80
2019-01-18T13:55:02.368Z,82.50
2019-01-18T13:57:28.444Z,82.40
2019-01-18T13:59:54.517Z,82.20
2019-01-18T14:02:20.582Z,82.40
2019-01-18T14:04:46.926Z,82.20
2019-01-18T14:07:12.977Z,81.90
2019-01-18T14:09:39.100Z,81.40
2019-01-18T14:12:05.155Z,80.90
2019-01-18T14:14:31.481Z,80.80
2019-01-18T14:16:57.530Z,81.10
2019-01-18T14:19:23.589Z,81.20
2019-01-18T14:21:49.995Z,81.20
2019-01-18T14:24:16.036Z,81.00
2019-01-18T14:26:42.091Z,82.00
2019-01-18T14:29:08.140Z,80.50
2019-01-18T14:31:34.212Z,80.30
2019-01-18T14:34:00.275Z,80.40
2019-01-18T14:36:26.324Z,80.70
2019-01-18T14:38:52.363Z,80.80
2019-01-18T14:41:18.428Z,80.60
2019-01-18T14:43:44.475Z,81.00
2019-01-18T14:46:10.521Z,80.70
2019-01-18T14:48:36.595Z,80.60
2019-01-18T14:51:03.431Z,80.60
2019-01-18T14:53:29.501Z,80.70
2019-01-18T14:55:55.551Z,80.70
2019-01-18T14:58:24.625Z,80.70
2019-01-18T15:00:49.663Z,80.60
2019-01-18T15:03:16.114Z,80.30
2019-01-18T15:05:42.169Z,80.40
2019-01-18T15:08:08.663Z,80.40
2019-01-18T15:10:34.872Z,80.40
2019-01-18T15:13:06.857Z,80.40
2019-01-18T15:15:33.012Z,80.40
2019-01-18T15:17:59.064Z,80.20
2019-01-18T15:20:30.160Z,80.30
2019-01-18T15:22:56.423Z,80.20
2019-01-18T15:25:22.672Z,80.10
2019-01-18T15:27:48.848Z,80.30
2019-01-18T15:30:17.727Z,80.80
2019-01-18T15:32:43.767Z,80.90
2019-01-18T15:35:15.771Z,81.00
2019-01-18T15:37:41.829Z,81.30
2019-01-18T15:40:14.448Z,81.40
2019-01-18T15:42:40.494Z,81.50
2019-01-18T15:45:08.647Z,81.20
2019-01-18T15:47:34.691Z,81.50
2019-01-18T15:50:00.747Z,81.80
2019-01-18T15:52:26.790Z,82.20
2019-01-18T15:54:52.867Z,82.40
2019-01-18T15:57:18.904Z,82.40
2019-01-18T15:59:44.939Z,82.40
2019-01-18T16:02:10.993Z,82.60
2019-01-18T16:04:37.058Z,82.60
2019-01-18T16:07:03.101Z,82.60
2019-01-18T16:09:29.152Z,82.80
2019-01-18T16:11:55.543Z,82.80
2019-01-18T16:14:21.587Z,82.80
2019-01-18T16:16:47.635Z,82.90
2019-01-18T16:19:13.683Z,83.00
2019-01-18T16:21:39.727Z,82.90
2019-01-18T16:24:05.764Z,83.10
2019-01-18T16:26:31.872Z,83.10
2019-01-18T16:28:57.929Z,83.30
2019-01-18T16:31:24.070Z,83.20
2019-01-18T16:33:50.299Z,83.30
2019-01-18T16:36:16.340Z,83.20
2019-01-18T16:38:42.387Z,83.10
2019-01-18T16:41:08.448Z,82.80
2019-01-18T16:43:34.488Z,82.40
2019-01-18T16:46:20.420Z,82.20
2019-01-18T16:48:46.471Z,81.60
2019-01-18T16:51:12.515Z,81.80
2019-01-18T16:53:38.594Z,82.10
2019-01-18T16:56:04.821Z,82.40
2019-01-18T16:58:30.885Z,82.50
2019-01-18T17:00:59.576Z,82.50
2019-01-18T17:03:30.229Z,82.60
2019-01-18T17:05:53.930Z,82.90
2019-01-18T17:08:19.988Z,83.00
2019-01-18T17:10:46.131Z,82.80
2019-01-18T17:13:12.185Z,82.70
2019-01-18T17:15:38.299Z,82.80
2019-01-18T17:18:04.332Z,82.90
2019-01-18T17:20:37.001Z,82.80
2019-01-18T17:23:03.149Z,82.90
2019-01-18T17:25:29.212Z,82.80
2019-01-18T17:27:55.270Z,82.60
2019-01-18T17:30:21.683Z,82.50
2019-01-18T17:32:48.145Z,82.80
2019-01-18T17:35:21.003Z,82.70
2019-01-18T17:37:50.982Z,82.80
2019-01-18T17:40:20.813Z,82.70
2019-01-18T17:42:53.687Z,82.70
2019-01-18T17:45:32.203Z,82.20
2019-01-18T17:48:21.711Z,82.10
2019-01-18T17:51:09.254Z,82.20
2019-01-18T17:53:47.916Z,82.10
2019-01-18T17:56:23.549Z,82.20
2019-01-18T17:59:14.088Z,82.20
2019-01-18T18:01:46.711Z,82.20
2019-01-18T18:04:19.328Z,82.20
2019-01-18T18:07:10.347Z,82.10
2019-01-18T18:09:42.940Z,82.20
2019-01-18T18:12:24.125Z,82.30
2019-01-18T18:15:08.804Z,82.30
2019-01-18T18:17:44.391Z,82.40
2019-01-18T18:20:38.451Z,82.70
2019-01-18T18:23:20.207Z,83.10
2019-01-18T18:26:02.303Z,83.00
2019-01-18T18:28:51.554Z,83.10
2019-01-18T18:31:30.831Z,83.10
2019-01-18T18:34:15.563Z,83.10
2019-01-18T18:36:45.427Z,83.30
2019-01-18T18:39:21.553Z,83.30
2019-01-18T18:42:10.074Z,83.60
2019-01-18T18:44:57.776Z,83.50
2019-01-18T18:47:27.636Z,83.50
2019-01-18T18:50:03.031Z,83.40
2019-01-18T18:52:35.843Z,83.30
2019-01-18T18:55:05.717Z,83.40
2019-01-18T18:57:41.585Z,83.20
2019-01-18T19:00:14.770Z,83.10
2019-01-18T19:02:47.428Z,83.00
2019-01-18T19:05:20.004Z,83.10
2019-01-18T19:07:49.884Z,83.10
2019-01-18T19:10:36.655Z,83.00
2019-01-18T19:13:15.604Z,83.60
2019-01-18T19:16:14.508Z,82.80
2019-01-18T19:18:50.452Z,82.80
2019-01-18T19:21:25.907Z,82.90
2019-01-18T19:24:07.877Z,82.80
2019-01-18T19:27:05.127Z,82.80
2019-01-18T19:29:40.834Z,82.90
2019-01-18T19:32:16.491Z,82.90
2019-01-18T19:34:46.622Z,82.90
2019-01-18T19:37:49.552Z,83.10
2019-01-18T19:40:19.407Z,83.00
2019-01-18T19:43:00.807Z,82.90
2019-01-18T19:45:36.565Z,83.70
2019-01-18T19:48:15.315Z,83.00
2019-01-18T19:50:48.585Z,83.10
2019-01-18T19:53:24.745Z,83.40
2019-01-18T19:56:09.858Z,83.70
2019-01-18T19:58:55.217Z,83.30
2019-01-18T20:01:25.063Z,83.20
2019-01-18T20:04:11.487Z,83.40
2019-01-18T20:06:44.805Z,83.30
2019-01-18T20:09:33.098Z,83.40
2019-01-18T20:12:08.815Z,83.70
2019-01-18T20:14:47.779Z,83.70
2019-01-18T20:17:23.451Z,83.80
2019-01-18T20:19:59.083Z,83.60
2019-01-18T20:22:41.179Z,83.60
2019-01-18T20:25:17.316Z,83.50
2019-01-18T20:28:05.199Z,83.50
2019-01-18T20:30:47.669Z,83.40
2019-01-18T20:33:34.744Z,83.50
2019-01-18T20:36:28.804Z,83.40
2019-01-18T20:39:13.829Z,83.40
2019-01-18T20:41:52.352Z,83.20
2019-01-18T20:44:45.159Z,83.40
2019-01-18T20:47:45.136Z,83.50
2019-01-18T20:50:44.231Z,83.60
2019-01-18T20:53:33.854Z,83.80
2019-01-18T20:56:09.615Z,83.80
2019-01-18T20:58:58.170Z,83.50
2019-01-18T21:01:51.005Z,83.60
2019-01-18T21:04:40.987Z,83.80
2019-01-18T21:07:33.735Z,83.60
2019-01-18T21:10:22.169Z,83.70
2019-01-18T21:13:01.131Z,84.30
2019-01-18T21:15:37.156Z,83.50
2019-01-18T21:18:22.394Z,83.50
2019-01-18T21:21:01.257Z,83.30
2019-01-18T21:23:37.044Z,83.20
2019-01-18T21:26:13.107Z,83.20
2019-01-18T21:29:00.916Z,83.30
2019-01-18T21:31:42.894Z,83.20
2019-01-18T21:34:19.272Z,83.40
2019-01-18T21:37:11.612Z,83.20
2019-01-18T21:40:03.661Z,83.30
2019-01-18T21:42:45.882Z,83.40
2019-01-18T21:45:34.505Z,83.50
2019-01-18T21:48:10.231Z,83.40
2019-01-18T21:51:02.442Z,83.30
2019-01-18T21:53:59.673Z,83.20
2019-01-18T21:56:44.406Z,83.20
2019-01-18T21:59:34.540Z,83.30
2019-01-18T22:02:07.711Z,83.20
2019-01-18T22:04:40.833Z,83.20
2019-01-18T22:07:29.463Z,83.30
2019-01-18T22:10:11.219Z,83.20
2019-01-18T22:13:04.175Z,84.00
2019-01-18T22:15:48.628Z,83.30
2019-01-18T22:18:27.482Z,83.40
2019-01-18T22:21:06.682Z,83.30
2019-01-18T22:23:39.306Z,83.30
2019-01-18T22:26:17.705Z,83.20
2019-01-18T22:29:02.333Z,83.00
2019-01-18T22:31:50.430Z,82.80
2019-01-18T22:34:32.685Z,82.80
2019-01-18T22:37:34.273Z,82.70
2019-01-18T22:40:28.559Z,82.60
2019-01-18T22:43:04.714Z,82.50
2019-01-18T22:45:40.731Z,82.40
2019-01-18T22:48:16.135Z,82.10
2019-01-18T22:51:04.083Z,82.00
2019-01-18T22:53:49.652Z,81.90
2019-01-18T22:56:25.142Z,81.70
2019-01-18T22:59:00.902Z,81.60
2019-01-18T23:01:33.999Z,82.20
2019-01-18T23:04:23.667Z,81.40
2019-01-18T23:06:56.243Z,81.20
2019-01-18T23:09:59.604Z,80.90
2019-01-18T23:12:52.413Z,80.80
2019-01-18T23:15:31.330Z,80.70
2019-01-18T23:18:12.139Z,80.60
2019-01-18T23:21:11.058Z,80.70
2019-01-18T23:23:52.635Z,80.80
2019-01-18T23:26:28.042Z,80.80
2019-01-18T23:29:06.648Z,80.80
2019-01-18T23:31:48.172Z,80.90
2019-01-18T23:34:30.419Z,80.80
2019-01-18T23:37:00.308Z,80.80
2019-01-18T23:39:36.159Z,80.60
2019-01-18T23:42:15.140Z,80.60
2019-01-18T23:44:57.210Z,80.50
2019-01-18T23:47:38.804Z,80.40
2019-01-18T23:50:11.804Z,80.40
2019-01-18T23:52:47.697Z,80.30
2019-01-18T23:55:42.254Z,80.30
2019-01-18T23:58:18.363Z,80.20
